Terminal Aerodrome Forecast
Issued by NWS Flagstaff, AZ

Home | Current Version | Previous Version | Text Only | Print | Product List | Glossary On
Versions: 1 2 3 4 5 6 7 8 9 10 11 12
293
FTUS45 KFGZ 120534
TAFFLG
TAF
KFLG 120534Z 1206/1306 VRB05KT P6SM SKC
     FM122000 19007KT P6SM FEW250
     FM130100 VRB05KT P6SM FEW250=

USA.gov is the U.S. government's official web portal to all federal, state and local government web resources and services.